Time;durP1;ratioP1;P1;durP2;ratioP2;P2;SDS_P1;SDS_P2;PMS_P1;PMS_P2;Temp;Humidity;BMP_temperature;BMP_pressure;BME280_temperature;BME280_humidity;BME280_pressure;Samples;Min_cycle;Max_cycle;Signal;HPM_P1;HPM_P2
2022/07/28 00:02:01;;;;;;;0.20;0.00;;;21.30;52.90;;;;;;5111676;28;20044;-71
2022/07/28 00:04:26;;;;;;;0.50;0.10;;;21.30;52.90;;;;;;5112495;28;20050;-71
2022/07/28 00:06:52;;;;;;;0.60;0.10;;;21.30;52.90;;;;;;5111594;28;20483;-71
2022/07/28 00:09:17;;;;;;;0.85;0.10;;;21.30;52.90;;;;;;5111178;28;20380;-71
2022/07/28 00:11:43;;;;;;;0.30;0.10;;;21.20;52.80;;;;;;5112875;28;20039;-71
2022/07/28 00:14:09;;;;;;;0.50;0.10;;;21.30;52.90;;;;;;5112451;28;20044;-71
2022/07/28 00:16:36;;;;;;;0.20;0.10;;;21.20;52.80;;;;;;5111213;28;20119;-71
2022/07/28 00:19:02;;;;;;;1.00;0.10;;;21.20;52.80;;;;;;5111158;28;20043;-71
2022/07/28 00:21:27;;;;;;;0.15;0.10;;;21.20;52.80;;;;;;5111022;28;20048;-71
2022/07/28 00:23:53;;;;;;;0.60;0.10;;;21.20;52.80;;;;;;5112241;28;20081;-71
2022/07/28 00:26:18;;;;;;;0.60;0.10;;;21.20;52.80;;;;;;5110967;28;20501;-71
2022/07/28 00:28:44;;;;;;;0.35;0.10;;;21.20;52.80;;;;;;5111138;28;20079;-72
2022/07/28 00:31:10;;;;;;;0.20;0.10;;;21.20;52.80;;;;;;5110843;28;20419;-72
2022/07/28 00:33:35;;;;;;;0.30;0.10;;;21.10;52.80;;;;;;5112167;28;20053;-71
2022/07/28 00:36:01;;;;;;;0.25;0.10;;;21.20;52.80;;;;;;5111164;28;20050;-71
2022/07/28 00:38:26;;;;;;;0.77;0.10;;;21.20;52.80;;;;;;5110841;28;20041;-71
2022/07/28 00:41:23;;;;;;;0.30;0.13;;;21.20;52.80;;;;;;5110880;28;20130;-71
2022/07/28 00:43:41;;;;;;;0.93;0.20;;;21.10;52.80;;;;;;5110979;28;20371;-71
2022/07/28 00:46:07;;;;;;;0.38;0.10;;;21.10;52.80;;;;;;5110918;28;20123;-71
2022/07/28 00:48:37;;;;;;;0.20;0.00;;;21.10;52.80;;;;;;5111092;28;20410;-71
2022/07/28 00:51:03;;;;;;;0.43;0.10;;;21.10;52.80;;;;;;5110865;28;20032;-71
2022/07/28 00:53:29;;;;;;;0.10;0.00;;;21.10;52.80;;;;;;5110696;28;20085;-71
2022/07/28 00:55:55;;;;;;;0.52;0.10;;;21.10;52.80;;;;;;5110975;28;20036;-71
2022/07/28 00:58:20;;;;;;;1.05;0.10;;;21.10;52.80;;;;;;5110764;28;20494;-71
2022/07/28 01:00:46;;;;;;;0.25;0.10;;;21.10;52.70;;;;;;5111950;28;20051;-71
2022/07/28 01:03:12;;;;;;;0.35;0.10;;;21.10;52.70;;;;;;5110997;28;20071;-72
2022/07/28 01:05:56;;;;;;;0.77;0.17;;;21.10;52.70;;;;;;5110880;28;20487;-71
2022/07/28 01:16:49;;;;;;;0.30;0.10;;;21.10;52.70;;;;;;5089429;28;20428;-71
2022/07/28 01:21:59;;;;;;;0.22;0.10;;;21.10;52.70;;;;;;5130258;27;20395;-71
2022/07/28 01:27:40;;;;;;;0.70;0.10;;;21.10;52.70;;;;;;5130265;27;20346;-71
2022/07/28 01:30:21;;;;;;;0.38;0.10;;;21.00;52.70;;;;;;5129302;28;20038;-71
2022/07/28 01:32:53;;;;;;;0.60;0.10;;;21.00;52.60;;;;;;5128976;28;20039;-71
2022/07/28 01:35:23;;;;;;;0.40;0.10;;;21.00;52.70;;;;;;5128834;28;20044;-71
2022/07/28 01:37:56;;;;;;;0.10;0.10;;;21.00;52.60;;;;;;5128907;28;20047;-71
2022/07/28 01:40:26;;;;;;;0.03;0.00;;;21.00;52.60;;;;;;5129046;28;20163;-71
2022/07/28 01:42:55;;;;;;;0.20;0.10;;;21.00;53.40;;;;;;5130252;27;20035;-71
2022/07/28 01:45:23;;;;;;;0.20;0.10;;;21.00;52.60;;;;;;5129107;28;20046;-71
2022/07/28 01:47:51;;;;;;;0.35;0.10;;;21.00;52.70;;;;;;5128909;28;20134;-72
2022/07/28 01:50:21;;;;;;;0.40;0.10;;;21.00;52.60;;;;;;5128889;28;20039;-71
2022/07/28 01:52:48;;;;;;;0.35;0.10;;;21.00;52.70;;;;;;5128779;28;20071;-71
2022/07/28 01:55:19;;;;;;;0.20;0.10;;;20.90;52.60;;;;;;5128595;28;20043;-71
2022/07/28 01:57:45;;;;;;;;;;;21.00;52.60;;;;;;5129077;28;20436;-71
2022/07/28 02:00:12;;;;;;;0.22;0.00;;;21.00;52.70;;;;;;5129785;27;19916;-71
2022/07/28 02:02:41;;;;;;;0.20;0.10;;;20.90;52.60;;;;;;5128236;27;20046;-71
2022/07/28 02:05:11;;;;;;;0.30;0.10;;;20.90;52.60;;;;;;5128513;28;20391;-71
2022/07/28 02:07:38;;;;;;;0.30;0.08;;;20.90;52.60;;;;;;5128590;28;20063;-71
2022/07/28 02:10:05;;;;;;;0.70;0.10;;;20.90;52.60;;;;;;5145535;27;20115;-71
2022/07/28 02:12:34;;;;;;;0.35;0.10;;;20.90;52.60;;;;;;5129516;27;20082;-71
2022/07/28 02:15:01;;;;;;;0.22;0.10;;;20.90;52.60;;;;;;5129487;27;20239;-72
2022/07/28 02:17:30;;;;;;;0.20;0.10;;;20.90;52.60;;;;;;5129240;27;20442;-71
2022/07/28 02:19:57;;;;;;;0.60;0.10;;;20.90;52.60;;;;;;5145639;27;20035;-71
2022/07/28 02:22:25;;;;;;;0.38;0.10;;;20.90;52.60;;;;;;5127984;28;20051;-71
2022/07/28 02:24:54;;;;;;;0.25;0.00;;;20.90;52.60;;;;;;5127953;27;20067;-71
2022/07/28 02:27:37;;;;;;;0.30;0.10;;;20.90;52.50;;;;;;5129119;27;20165;-71
2022/07/28 02:38:26;;;;;;;0.52;0.10;;;20.80;52.50;;;;;;5089295;28;20389;-71
2022/07/28 02:40:56;;;;;;;0.93;0.10;;;20.90;52.50;;;;;;5088095;28;20131;-71
2022/07/28 02:43:26;;;;;;;0.70;0.13;;;20.80;52.50;;;;;;5105091;28;20480;-71
2022/07/28 02:45:55;;;;;;;0.30;0.10;;;20.80;52.40;;;;;;5105567;28;20044;-71
2022/07/28 02:48:26;;;;;;;0.13;0.03;;;20.80;52.50;;;;;;5105055;28;20517;-71
2022/07/28 02:50:55;;;;;;;0.40;0.10;;;20.80;52.50;;;;;;5087919;28;20119;-71
2022/07/28 02:53:23;;;;;;;0.47;0.10;;;20.80;52.40;;;;;;5105113;28;20048;-71
2022/07/28 02:55:50;;;;;;;1.23;0.20;;;20.80;52.40;;;;;;5104835;28;20052;-71
2022/07/28 02:58:19;;;;;;;0.57;0.05;;;20.80;52.50;;;;;;5089070;28;20119;-71
2022/07/28 03:00:46;;;;;;;0.30;0.10;;;20.80;52.50;;;;;;5089184;28;20123;-71
2022/07/28 03:03:13;;;;;;;0.30;0.10;;;20.80;52.50;;;;;;5087981;28;20416;-71
2022/07/28 03:05:40;;;;;;;0.10;0.00;;;20.80;52.40;;;;;;5087593;28;20119;-71
2022/07/28 03:08:06;;;;;;;0.08;0.00;;;20.80;52.40;;;;;;5087960;28;20047;-71
2022/07/28 03:10:32;;;;;;;0.52;0.10;;;20.80;52.40;;;;;;5087821;28;20384;-71
2022/07/28 03:12:59;;;;;;;0.20;0.10;;;20.80;52.40;;;;;;5087572;28;20055;-71
2022/07/28 03:15:24;;;;;;;0.35;0.00;;;20.80;52.40;;;;;;5087706;28;20040;-71
2022/07/28 03:17:50;;;;;;;0.20;0.10;;;20.80;52.40;;;;;;5087393;28;20041;-71
2022/07/28 03:20:16;;;;;;;0.57;0.10;;;20.70;52.40;;;;;;5087547;28;20032;-71
2022/07/28 03:22:42;;;;;;;0.80;0.10;;;20.70;52.30;;;;;;5087428;28;20432;-71
2022/07/28 03:25:18;;;;;;;0.22;0.10;;;20.70;52.40;;;;;;5087250;28;20048;-71
2022/07/28 03:27:47;;;;;;;0.17;0.10;;;20.70;52.40;;;;;;5087534;28;20085;-71
2022/07/28 03:30:15;;;;;;;0.45;0.10;;;20.70;52.40;;;;;;5088502;28;20522;-71
2022/07/28 03:32:47;;;;;;;0.40;0.10;;;20.70;52.40;;;;;;5088517;28;20047;-71
2022/07/28 03:35:13;;;;;;;0.13;0.10;;;20.70;52.40;;;;;;5087259;28;20079;-71
2022/07/28 03:37:58;;;;;;;0.55;0.10;;;20.70;52.40;;;;;;5086884;28;20049;-71
2022/07/28 03:40:28;;;;;;;1.10;0.20;;;20.70;52.40;;;;;;5087191;28;20047;-71
2022/07/28 03:42:55;;;;;;;0.17;0.10;;;20.70;52.40;;;;;;5087335;28;20101;-71
2022/07/28 03:45:22;;;;;;;0.20;0.05;;;20.70;52.40;;;;;;5088422;28;20124;-71
2022/07/28 03:47:50;;;;;;;0.10;0.00;;;20.70;52.30;;;;;;5083992;28;20051;-71
2022/07/28 03:50:16;;;;;;;0.43;0.10;;;20.60;52.30;;;;;;5073629;28;20044;-71
2022/07/28 03:52:42;;;;;;;0.30;0.10;;;20.60;52.30;;;;;;5074770;28;20040;-71
2022/07/28 03:55:12;;;;;;;0.50;0.00;;;20.60;52.30;;;;;;5074557;28;20559;-71
2022/07/28 03:57:38;;;;;;;0.65;0.10;;;20.60;52.30;;;;;;5073299;28;20106;-71
2022/07/28 04:00:04;;;;;;;0.20;0.10;;;20.60;52.30;;;;;;5073403;28;20396;-70
2022/07/28 04:02:29;;;;;;;0.65;0.10;;;20.60;52.30;;;;;;5073379;28;20036;-71
2022/07/28 04:04:55;;;;;;;0.38;0.10;;;20.60;52.30;;;;;;5073398;28;20039;-71
2022/07/28 04:07:21;;;;;;;0.30;0.10;;;20.60;52.30;;;;;;5073150;28;20079;-71
2022/07/28 04:09:46;;;;;;;0.70;0.00;;;20.60;52.30;;;;;;5074282;28;20028;-71
2022/07/28 04:12:12;;;;;;;0.20;0.10;;;20.60;52.30;;;;;;5073233;28;20089;-71
2022/07/28 04:14:37;;;;;;;0.20;0.10;;;20.60;52.30;;;;;;5074210;28;20044;-71
2022/07/28 04:17:03;;;;;;;0.20;0.10;;;20.60;52.30;;;;;;5072705;28;20143;-70
2022/07/28 04:19:29;;;;;;;0.30;0.10;;;20.60;52.30;;;;;;5072803;28;20033;-71
2022/07/28 04:21:54;;;;;;;0.30;0.10;;;20.50;52.30;;;;;;5072776;28;20124;-71
2022/07/28 04:24:20;;;;;;;0.25;0.10;;;20.60;52.30;;;;;;5073098;28;20064;-71
2022/07/28 04:26:46;;;;;;;0.10;0.00;;;20.50;52.20;;;;;;5072906;28;20098;-71
2022/07/28 04:29:11;;;;;;;0.20;0.00;;;20.50;52.20;;;;;;5072746;28;20040;-71
2022/07/28 04:31:37;;;;;;;0.20;0.00;;;20.50;52.20;;;;;;5072526;28;20051;-70
2022/07/28 04:34:03;;;;;;;0.80;0.00;;;20.50;52.20;;;;;;5072854;28;20051;-71
2022/07/28 04:36:29;;;;;;;0.52;0.10;;;20.50;52.30;;;;;;5073439;28;20045;-71
2022/07/28 04:38:56;;;;;;;0.10;0.00;;;20.50;52.20;;;;;;5072497;28;20045;-71
2022/07/28 04:41:22;;;;;;;0.10;0.10;;;20.50;52.20;;;;;;5072346;28;20484;-71
2022/07/28 04:43:47;;;;;;;0.10;0.00;;;20.50;52.20;;;;;;5072372;28;20043;-71
2022/07/28 04:46:13;;;;;;;0.45;0.05;;;20.50;52.20;;;;;;5072613;28;20159;-71
2022/07/28 04:48:39;;;;;;;0.30;0.08;;;20.50;52.20;;;;;;5072435;28;20587;-71
2022/07/28 04:51:04;;;;;;;1.08;0.03;;;20.50;52.20;;;;;;5072232;28;20438;-71
2022/07/28 04:53:31;;;;;;;0.20;0.03;;;20.50;52.20;;;;;;5072125;28;20047;-71
2022/07/28 04:55:56;;;;;;;0.57;0.10;;;20.50;52.20;;;;;;5072064;28;20047;-70
2022/07/28 04:58:23;;;;;;;0.77;0.08;;;20.50;52.20;;;;;;5072308;28;20040;-71
2022/07/28 05:00:49;;;;;;;0.30;0.10;;;20.50;52.20;;;;;;5071349;28;20040;-71
2022/07/28 05:03:15;;;;;;;0.05;0.00;;;20.40;52.10;;;;;;5071823;28;20094;-70
2022/07/28 05:05:40;;;;;;;0.40;0.10;;;20.50;52.20;;;;;;5072276;28;20040;-71
2022/07/28 05:08:06;;;;;;;0.20;0.00;;;20.50;52.20;;;;;;5072216;28;20044;-71
2022/07/28 05:10:32;;;;;;;0.57;0.10;;;20.50;52.20;;;;;;5071968;28;20495;-70
2022/07/28 05:12:57;;;;;;;0.10;0.00;;;20.50;52.30;;;;;;5071977;28;20127;-71
2022/07/28 05:15:23;;;;;;;0.55;0.00;;;20.50;52.20;;;;;;5071792;28;20052;-70
2022/07/28 05:17:48;;;;;;;0.22;0.10;;;20.50;52.20;;;;;;5071520;28;20109;-70
2022/07/28 05:20:16;;;;;;;0.10;0.00;;;20.50;52.30;;;;;;5071880;28;20048;-71
2022/07/28 05:22:46;;;;;;;0.40;0.10;;;20.50;52.20;;;;;;5071529;28;20037;-71
2022/07/28 05:25:16;;;;;;;1.08;0.00;;;20.40;52.20;;;;;;5055254;28;20044;-71
2022/07/28 05:27:41;;;;;;;0.32;0.00;;;20.40;52.20;;;;;;5072856;28;20396;-71
2022/07/28 05:30:08;;;;;;;0.20;0.10;;;20.40;52.20;;;;;;5071449;28;20051;-71
2022/07/28 05:32:34;;;;;;;0.32;0.00;;;20.40;52.20;;;;;;5072626;28;20045;-71
2022/07/28 05:35:00;;;;;;;0.28;0.10;;;20.40;52.20;;;;;;5071616;28;20045;-71
2022/07/28 05:37:25;;;;;;;1.13;0.10;;;20.40;52.20;;;;;;5071030;28;20048;-71
2022/07/28 05:39:51;;;;;;;0.10;0.03;;;20.40;52.20;;;;;;5071222;28;20090;-71
2022/07/28 05:42:16;;;;;;;1.05;0.15;;;20.40;52.20;;;;;;5071537;28;20047;-71
2022/07/28 05:44:42;;;;;;;0.28;0.10;;;20.40;52.20;;;;;;5071164;28;20043;-71
2022/07/28 05:47:08;;;;;;;0.10;0.00;;;20.40;52.20;;;;;;5072477;28;20044;-71
2022/07/28 05:49:34;;;;;;;0.47;0.00;;;20.40;52.30;;;;;;5071214;28;20072;-71
2022/07/28 05:51:59;;;;;;;0.32;0.10;;;20.40;52.30;;;;;;5071106;28;20475;-70
2022/07/28 05:54:25;;;;;;;1.27;0.05;;;20.40;52.30;;;;;;5070944;28;20049;-71
2022/07/28 05:56:51;;;;;;;0.20;0.10;;;20.40;52.30;;;;;;5072282;28;20039;-71
2022/07/28 05:59:16;;;;;;;0.30;0.00;;;20.40;52.30;;;;;;5070929;28;20038;-71
2022/07/28 06:01:42;;;;;;;0.30;0.10;;;20.40;52.30;;;;;;5072182;28;20044;-73
2022/07/28 06:04:08;;;;;;;0.22;0.00;;;20.40;52.30;;;;;;5071060;28;20047;-73
2022/07/28 06:06:33;;;;;;;0.15;0.10;;;20.40;52.30;;;;;;5071103;28;20389;-71
2022/07/28 06:08:59;;;;;;;0.40;0.10;;;20.40;52.30;;;;;;5070871;28;20519;-71
2022/07/28 06:11:25;;;;;;;0.10;0.00;;;20.40;52.30;;;;;;5070526;28;20040;-71
2022/07/28 06:13:51;;;;;;;1.00;0.20;;;20.40;52.30;;;;;;5072006;28;20040;-71
2022/07/28 06:16:19;;;;;;;0.30;0.05;;;20.40;52.30;;;;;;5070597;28;20040;-71
2022/07/28 06:18:45;;;;;;;0.40;0.10;;;20.40;52.30;;;;;;5070972;28;20028;-71
2022/07/28 06:21:10;;;;;;;1.13;0.10;;;20.40;52.30;;;;;;5070555;28;20507;-71
2022/07/28 06:23:36;;;;;;;0.20;0.08;;;20.40;52.30;;;;;;5070717;28;20119;-71
2022/07/28 06:26:01;;;;;;;0.40;0.10;;;20.40;52.30;;;;;;5070935;28;20036;-71
2022/07/28 06:28:27;;;;;;;0.43;0.10;;;20.40;52.30;;;;;;5070583;28;20041;-71
2022/07/28 06:30:53;;;;;;;0.20;0.10;;;20.40;52.30;;;;;;5070562;28;20119;-71
2022/07/28 06:33:18;;;;;;;0.20;0.10;;;20.40;52.30;;;;;;5070580;28;20064;-71
2022/07/28 06:35:44;;;;;;;0.98;0.40;;;20.40;52.30;;;;;;5070448;28;20040;-71
2022/07/28 06:38:10;;;;;;;0.40;0.10;;;20.40;52.30;;;;;;5071498;28;20068;-71
2022/07/28 06:40:36;;;;;;;0.13;0.00;;;20.40;52.40;;;;;;5070414;28;20048;-71
2022/07/28 06:43:02;;;;;;;0.60;0.10;;;20.40;52.40;;;;;;5070797;28;20048;-71
2022/07/28 06:45:28;;;;;;;0.08;0.00;;;20.50;52.40;;;;;;5070694;28;20048;-71
2022/07/28 06:47:53;;;;;;;0.20;0.05;;;20.40;52.40;;;;;;5070450;28;20040;-71
2022/07/28 06:50:20;;;;;;;0.50;0.30;;;20.50;52.40;;;;;;5071595;28;20032;-71
2022/07/28 06:52:45;;;;;;;0.70;0.10;;;20.40;52.40;;;;;;5070622;28;20040;-71
2022/07/28 06:55:14;;;;;;;0.28;0.00;;;20.50;52.40;;;;;;5070686;28;20490;-71
2022/07/28 06:57:41;;;;;;;0.47;0.10;;;20.50;52.50;;;;;;5071635;28;20048;-71
2022/07/28 07:00:09;;;;;;;0.95;0.00;;;20.50;52.40;;;;;;5070345;28;20094;-71
2022/07/28 07:02:39;;;;;;;0.40;0.10;;;20.50;52.40;;;;;;5070275;28;20044;-71
2022/07/28 07:05:05;;;;;;;0.10;0.03;;;20.50;52.40;;;;;;5070494;28;20043;-71
2022/07/28 07:07:31;;;;;;;0.55;0.50;;;20.40;52.40;;;;;;5070240;28;20083;-71
2022/07/28 07:09:57;;;;;;;0.63;0.10;;;20.50;52.50;;;;;;5071649;28;20072;-71
2022/07/28 07:12:22;;;;;;;0.22;0.10;;;20.40;52.40;;;;;;5053768;28;20426;-71
2022/07/28 07:14:48;;;;;;;0.10;0.00;;;20.40;52.40;;;;;;5071834;28;20656;-70
2022/07/28 07:17:14;;;;;;;0.25;0.00;;;20.50;52.40;;;;;;5070388;28;20045;-71
2022/07/28 07:19:39;;;;;;;0.40;0.10;;;20.50;52.50;;;;;;5069989;28;20032;-71
2022/07/28 07:22:05;;;;;;;1.02;0.10;;;20.40;52.40;;;;;;5070324;28;20052;-71
2022/07/28 07:24:31;;;;;;;1.20;0.10;;;20.50;52.50;;;;;;5072791;28;20543;-71
2022/07/28 07:26:57;;;;;;;0.63;0.03;;;20.50;52.50;;;;;;5073746;28;20040;-71
2022/07/28 07:29:23;;;;;;;0.82;0.20;;;20.50;52.50;;;;;;5073835;28;20072;-71
2022/07/28 07:31:49;;;;;;;0.55;0.05;;;20.50;52.50;;;;;;5073947;28;20117;-71
2022/07/28 07:34:15;;;;;;;0.43;0.08;;;20.50;52.50;;;;;;5074038;28;20556;-71
2022/07/28 07:36:41;;;;;;;0.13;0.00;;;20.50;52.50;;;;;;5056801;28;20056;-71
2022/07/28 07:39:07;;;;;;;0.28;0.03;;;20.50;52.50;;;;;;5073728;28;20051;-71
2022/07/28 07:41:32;;;;;;;0.30;0.10;;;20.50;52.50;;;;;;5073610;28;20036;-71
2022/07/28 07:43:58;;;;;;;0.15;0.00;;;20.50;52.50;;;;;;5073721;28;20090;-71
2022/07/28 07:46:24;;;;;;;0.65;0.10;;;20.50;52.50;;;;;;5073508;28;20465;-71
2022/07/28 07:48:49;;;;;;;0.10;0.00;;;20.50;52.50;;;;;;5075121;28;20041;-72
2022/07/28 07:51:15;;;;;;;0.30;0.10;;;20.50;52.50;;;;;;5073568;28;20362;-71
2022/07/28 07:53:40;;;;;;;0.38;0.10;;;20.40;52.50;;;;;;5073440;28;20514;-71
2022/07/28 07:56:06;;;;;;;0.20;0.10;;;20.40;52.50;;;;;;5073268;28;20052;-81
2022/07/28 07:58:32;;;;;;;0.30;0.10;;;20.50;52.60;;;;;;5073211;28;20119;-71
2022/07/28 08:00:57;;;;;;;0.30;0.00;;;20.50;52.50;;;;;;5073231;28;20033;-71
2022/07/28 08:03:23;;;;;;;0.57;0.10;;;20.50;52.60;;;;;;5074411;28;20045;-71
2022/07/28 08:05:48;;;;;;;0.32;0.10;;;20.50;52.50;;;;;;5073084;28;20467;-71
2022/07/28 08:08:15;;;;;;;0.30;0.10;;;20.50;52.50;;;;;;5073033;28;20052;-71
2022/07/28 08:10:40;;;;;;;0.50;0.10;;;20.50;52.50;;;;;;5074568;28;20086;-71
2022/07/28 08:13:06;;;;;;;1.15;0.10;;;20.50;52.50;;;;;;5074376;28;20037;-71
2022/07/28 08:15:33;;;;;;;0.10;0.08;;;20.50;52.50;;;;;;5073192;28;20042;-71
2022/07/28 08:18:00;;;;;;;0.80;0.10;;;20.50;52.50;;;;;;5072834;28;20048;-71
2022/07/28 08:20:26;;;;;;;0.60;0.10;;;20.50;52.60;;;;;;5074098;28;20039;-71
2022/07/28 08:22:54;;;;;;;0.40;0.10;;;20.50;52.50;;;;;;5072982;28;20130;-71
2022/07/28 08:25:21;;;;;;;0.40;0.10;;;20.50;52.50;;;;;;5072956;28;20113;-71
2022/07/28 08:27:47;;;;;;;0.85;0.03;;;20.50;52.50;;;;;;5072656;28;20056;-71
2022/07/28 08:30:14;;;;;;;0.70;0.10;;;20.50;52.50;;;;;;5072598;28;20124;-71
2022/07/28 08:32:40;;;;;;;0.50;0.10;;;20.40;52.40;;;;;;5072614;28;20481;-71
2022/07/28 08:35:06;;;;;;;0.22;0.10;;;20.50;52.50;;;;;;5072435;28;20162;-71
2022/07/28 08:37:32;;;;;;;0.55;0.10;;;20.50;52.50;;;;;;5072195;28;20063;-71
2022/07/28 08:39:58;;;;;;;1.38;0.10;;;20.50;52.40;;;;;;5072867;28;20044;-71
2022/07/28 08:42:47;;;;;;;0.20;0.10;;;20.50;52.40;;;;;;5072474;28;20510;-71
2022/07/28 08:45:14;;;;;;;0.93;0.10;;;20.50;52.40;;;;;;5073503;28;20373;-71
2022/07/28 08:47:42;;;;;;;0.63;0.10;;;20.50;52.40;;;;;;5071615;28;20121;-71
2022/07/28 08:50:11;;;;;;;0.93;0.05;;;20.50;52.40;;;;;;5071786;28;20051;-72
2022/07/28 08:52:38;;;;;;;0.43;0.10;;;20.50;52.30;;;;;;5073530;28;20543;-72
2022/07/28 08:55:07;;;;;;;0.57;0.10;;;20.50;52.30;;;;;;5072524;28;20044;-72
2022/07/28 09:00:13;;;;;;;2.25;0.20;;;20.50;52.30;;;;;;5129791;27;20415;-67
2022/07/28 09:02:41;;;;;;;0.75;0.20;;;20.60;53.00;;;;;;5128133;28;20130;-67
2022/07/28 09:05:08;;;;;;;2.05;0.20;;;20.70;53.00;;;;;;5129771;27;20112;-68
2022/07/28 09:07:38;;;;;;;2.83;0.77;;;20.70;52.90;;;;;;5128874;28;20032;-67
2022/07/28 09:10:05;;;;;;;2.13;0.10;;;20.80;52.90;;;;;;5128518;28;20122;-68
2022/07/28 09:12:34;;;;;;;1.17;0.10;;;20.90;52.80;;;;;;5128589;28;20043;-68
2022/07/28 09:15:02;;;;;;;1.95;0.17;;;20.90;52.70;;;;;;5129855;27;20118;-69
2022/07/28 09:17:27;;;;;;;0.65;0.10;;;21.00;52.60;;;;;;5127489;28;20459;-68
2022/07/28 09:19:53;;;;;;;3.55;0.20;;;21.10;52.50;;;;;;5127894;28;20066;-69
2022/07/28 09:22:19;;;;;;;0.80;0.10;;;21.10;52.40;;;;;;5127434;28;20039;-70
2022/07/28 09:24:45;;;;;;;6.53;0.28;;;21.20;52.40;;;;;;5128685;28;20073;-71
2022/07/28 09:27:12;;;;;;;0.88;0.10;;;21.30;52.40;;;;;;5128317;28;20598;-69
2022/07/28 09:29:40;;;;;;;2.00;0.15;;;21.30;52.40;;;;;;5129355;28;20039;-69
2022/07/28 09:32:06;;;;;;;1.33;0.10;;;21.40;52.40;;;;;;5128563;28;20047;-69
2022/07/28 09:34:42;;;;;;;0.28;0.10;;;21.50;52.40;;;;;;5128302;28;20122;-69
2022/07/28 09:37:19;;;;;;;0.68;0.10;;;21.50;52.40;;;;;;5127878;28;20564;-68
2022/07/28 09:39:46;;;;;;;0.65;0.10;;;21.60;52.50;;;;;;5107589;28;20102;-68
2022/07/28 09:42:12;;;;;;;2.10;0.10;;;21.60;52.40;;;;;;5107774;28;20036;-68
2022/07/28 09:44:38;;;;;;;0.30;0.03;;;21.70;52.50;;;;;;5107532;28;20130;-69
2022/07/28 09:47:25;;;;;;;0.50;0.20;;;21.70;52.40;;;;;;5109012;28;20044;-68
2022/07/28 09:49:51;;;;;;;1.40;0.10;;;21.80;52.30;;;;;;5108316;28;20065;-68
2022/07/28 09:52:36;;;;;;;0.68;0.10;;;21.80;52.20;;;;;;5115830;28;20034;-69
2022/07/28 09:55:06;;;;;;;2.33;0.20;;;21.90;52.10;;;;;;5127989;28;20043;-69
2022/07/28 09:57:34;;;;;;;1.25;0.10;;;21.90;52.00;;;;;;5127790;28;20051;-68
2022/07/28 10:00:00;;;;;;;0.50;0.10;;;22.00;51.90;;;;;;5127564;28;20055;-69
2022/07/28 10:02:29;;;;;;;1.58;0.20;;;22.00;51.90;;;;;;5127721;28;20475;-70
2022/07/28 10:04:55;;;;;;;0.77;0.10;;;22.00;51.80;;;;;;5129053;27;20383;-68
2022/07/28 10:07:20;;;;;;;5.18;0.10;;;22.00;51.80;;;;;;5127474;28;20104;-69
2022/07/28 10:10:04;;;;;;;1.02;0.10;;;22.10;51.80;;;;;;5124035;28;20093;-69
2022/07/28 10:12:32;;;;;;;0.38;0.10;;;22.10;51.70;;;;;;5114008;28;20043;-69
2022/07/28 10:16:09;;;;;;;0.52;0.10;;;22.10;51.70;;;;;;5112585;28;20053;-71
2022/07/28 10:17:56;;;;;;;3.90;0.15;;;22.10;51.50;;;;;;5113561;28;20047;-71
2022/07/28 10:20:23;;;;;;;2.47;0.20;;;22.10;51.50;;;;;;5113068;28;20376;-71
2022/07/28 10:22:51;;;;;;;1.77;0.10;;;22.00;51.60;;;;;;5113205;28;20032;-71
2022/07/28 10:25:20;;;;;;;1.10;0.10;;;22.00;51.50;;;;;;5113828;28;20074;-71
2022/07/28 10:27:47;;;;;;;2.00;0.10;;;22.00;51.60;;;;;;5113889;28;20376;-71
2022/07/28 10:30:13;;;;;;;2.35;0.10;;;21.90;51.50;;;;;;5113640;28;20039;-71
2022/07/28 10:32:43;;;;;;;1.35;0.10;;;21.90;51.60;;;;;;5113477;28;20040;-71
2022/07/28 10:35:12;;;;;;;0.32;0.05;;;21.80;51.50;;;;;;5113581;28;20383;-71
2022/07/28 10:40:44;;;;;;;1.45;0.10;;;21.70;51.60;;;;;;5130371;27;20894;-71
2022/07/28 10:43:10;;;;;;;0.25;0.10;;;21.70;51.60;;;;;;5130285;27;20425;-71
2022/07/28 10:45:37;;;;;;;0.50;0.10;;;21.70;51.60;;;;;;5129114;28;20039;-71
2022/07/28 10:48:04;;;;;;;2.85;0.10;;;21.60;51.60;;;;;;5129284;28;20364;-71
2022/07/28 10:50:31;;;;;;;0.32;0.10;;;21.60;51.80;;;;;;5128835;28;20035;-71
2022/07/28 10:52:58;;;;;;;1.17;0.10;;;21.60;51.80;;;;;;5146399;27;20047;-71
2022/07/28 11:00:59;;;;;;;3.63;0.17;;;21.60;51.70;;;;;;5130386;27;20762;-71
2022/07/28 11:06:35;;;;;;;0.52;0.10;;;21.50;51.70;;;;;;5130331;27;20354;-71
2022/07/28 11:11:57;;;;;;;0.93;0.17;;;21.40;51.60;;;;;;5130369;27;20357;-71
2022/07/28 11:22:27;;;;;;;0.85;0.10;;;21.40;51.80;;;;;;5130326;27;20755;-71
2022/07/28 11:33:23;;;;;;;0.30;0.20;;;21.40;52.00;;;;;;5130403;27;20128;-71
2022/07/28 11:38:28;;;;;;;0.55;0.20;;;21.30;51.90;;;;;;5130471;27;20382;-71
2022/07/28 11:40:55;;;;;;;0.47;0.10;;;21.30;52.00;;;;;;5129268;28;20108;-71
2022/07/28 11:48:42;;;;;;;0.38;0.10;;;21.40;52.00;;;;;;5089277;27;20712;-70
2022/07/28 11:51:11;;;;;;;0.32;0.10;;;21.30;51.60;;;;;;5089571;28;20373;-71
2022/07/28 11:56:22;;;;;;;0.40;0.10;;;21.30;51.90;;;;;;5150970;27;1217700;-71
2022/07/28 11:58:58;;;;;;;0.50;0.05;;;21.30;51.90;;;;;;5153448;27;20083;-71
2022/07/28 12:01:24;;;;;;;0.55;0.10;;;21.30;51.90;;;;;;5153317;27;20034;-71
2022/07/28 12:03:51;;;;;;;1.05;0.10;;;21.30;51.90;;;;;;5153119;27;20497;-71
2022/07/28 12:06:18;;;;;;;0.30;0.10;;;21.30;51.90;;;;;;5152924;27;20042;-71
2022/07/28 12:09:04;;;;;;;0.70;0.10;;;21.30;51.90;;;;;;5152880;27;20503;-71
2022/07/28 12:11:33;;;;;;;0.40;0.30;;;21.30;51.80;;;;;;5152934;27;20385;-71
2022/07/28 12:16:41;;;;;;;0.60;0.20;;;21.30;51.90;;;;;;5130264;27;20402;-71
2022/07/28 12:19:08;;;;;;;0.32;0.10;;;21.30;51.90;;;;;;5129199;28;20125;-71
2022/07/28 12:24:16;;;;;;;0.30;0.10;;;21.30;51.90;;;;;;5109656;27;20404;-71
2022/07/28 12:26:42;;;;;;;1.42;0.10;;;21.40;51.80;;;;;;5091639;28;20098;-71
2022/07/28 12:29:13;;;;;;;0.30;0.00;;;21.30;51.70;;;;;;5091613;28;20399;-71
2022/07/28 12:31:49;;;;;;;0.75;0.10;;;21.30;51.70;;;;;;5091630;28;20361;-71
2022/07/28 12:34:15;;;;;;;1.50;0.10;;;21.30;51.70;;;;;;5091611;28;20383;-71
2022/07/28 12:36:41;;;;;;;0.10;0.00;;;21.30;51.70;;;;;;5091198;28;20031;-72
2022/07/28 12:39:06;;;;;;;0.38;0.10;;;21.30;51.60;;;;;;5091280;28;20051;-71
2022/07/28 12:41:34;;;;;;;1.20;0.10;;;21.30;51.70;;;;;;5091419;28;20062;-72
2022/07/28 12:44:01;;;;;;;0.35;0.10;;;21.30;51.70;;;;;;5090979;28;20548;-71
2022/07/28 12:46:29;;;;;;;0.95;0.10;;;21.30;51.70;;;;;;5091096;28;20061;-71
2022/07/28 12:48:56;;;;;;;0.30;0.10;;;21.30;51.70;;;;;;5091028;28;20052;-71
2022/07/28 12:54:11;;;;;;;0.22;0.00;;;21.30;51.70;;;;;;5130311;27;20411;-71
2022/07/28 12:56:52;;;;;;;0.30;0.10;;;21.40;51.70;;;;;;5129230;28;20047;-71
2022/07/28 12:59:19;;;;;;;0.50;0.10;;;21.40;51.70;;;;;;5129183;28;20032;-71
2022/07/28 13:04:47;;;;;;;0.73;0.10;;;21.30;51.70;;;;;;5130270;27;20383;-71
2022/07/28 13:07:23;;;;;;;0.55;0.10;;;21.30;51.60;;;;;;5130259;27;20043;-71
2022/07/28 13:10:01;;;;;;;0.20;0.10;;;21.40;51.70;;;;;;5129204;28;20368;-71
2022/07/28 13:12:29;;;;;;;1.75;0.10;;;21.40;51.70;;;;;;5128944;28;20035;-71
2022/07/28 13:14:57;;;;;;;0.40;0.08;;;21.40;51.70;;;;;;5128865;28;20151;-71
2022/07/28 13:17:25;;;;;;;0.90;0.10;;;21.40;52.50;;;;;;5129069;28;20050;-71
2022/07/28 13:20:09;;;;;;;0.63;0.10;;;21.30;51.70;;;;;;5128689;28;20040;-71
2022/07/28 13:22:35;;;;;;;2.70;0.10;;;21.40;51.70;;;;;;5129914;27;20070;-71
2022/07/28 13:25:01;;;;;;;0.28;0.10;;;21.40;51.80;;;;;;5129903;28;20335;-71
2022/07/28 13:27:27;;;;;;;0.60;0.00;;;21.40;51.70;;;;;;5128583;28;20031;-71
2022/07/28 13:29:53;;;;;;;0.30;0.10;;;21.40;51.70;;;;;;5128523;28;20035;-71
2022/07/28 13:32:19;;;;;;;0.88;0.10;;;21.40;51.80;;;;;;5129785;27;20054;-71
2022/07/28 13:34:45;;;;;;;0.65;0.10;;;21.40;51.80;;;;;;5130003;28;20118;-71
2022/07/28 13:37:11;;;;;;;0.93;0.10;;;21.40;51.80;;;;;;5129861;27;20034;-71
2022/07/28 13:39:38;;;;;;;0.90;0.10;;;21.40;51.80;;;;;;5128601;28;20043;-71
2022/07/28 13:42:04;;;;;;;1.20;0.45;;;21.40;51.80;;;;;;5128216;28;20042;-71
2022/07/28 13:44:31;;;;;;;3.13;0.17;;;21.40;51.80;;;;;;5128176;28;20534;-71
2022/07/28 13:46:58;;;;;;;0.38;0.10;;;21.40;51.70;;;;;;5128743;28;20047;-72
2022/07/28 13:49:26;;;;;;;0.47;0.08;;;21.40;51.80;;;;;;5128641;28;20043;-71
2022/07/28 13:51:52;;;;;;;0.55;0.13;;;21.40;51.70;;;;;;5129529;27;20039;-71
2022/07/28 13:54:18;;;;;;;0.38;0.10;;;21.40;51.70;;;;;;5128312;28;20440;-72
2022/07/28 13:56:44;;;;;;;0.20;0.10;;;21.40;51.80;;;;;;5128206;28;20062;-74
2022/07/28 13:59:10;;;;;;;0.40;0.10;;;21.40;51.80;;;;;;5127974;28;20039;-71
2022/07/28 14:01:35;;;;;;;0.30;0.10;;;21.40;51.70;;;;;;5128089;28;20049;-71
2022/07/28 14:04:02;;;;;;;0.32;0.00;;;21.40;51.80;;;;;;5127591;28;20196;-74
2022/07/28 14:06:28;;;;;;;0.30;0.10;;;21.40;51.80;;;;;;5128025;28;20431;-72
2022/07/28 14:08:54;;;;;;;0.68;0.38;;;21.40;51.80;;;;;;5128028;28;20127;-71